Terminal Aerodrome Forecast
Issued by NWS

Home | Current Version | Previous Version | Text Only | Print | Product List | Glossary On
Versions: 1 2 3 4 5 6 7 8 9 10 11 12 13 14 15 16 17
523
FTUS46 KHNX 201552 AAA
TAFMCE
TAF AMD
KMCE 201552Z 2016/2112 14015G21KT P6SM -RA SCT025 OVC050
      TEMPO 2016/2018 14020G30KT 3SM RA BR BKN025
     FM202000 23011KT P6SM -SHRA SCT025 BKN040
      TEMPO 2022/2102 3SM TSRAPL BKN025CB
     FM210300 27013KT P6SM -SHRA OVC040=

USA.gov is the U.S. government's official web portal to all federal, state and local government web resources and services.